sensor_id;sensor_type;location;lat;lon;timestamp;temperature;humidity
27384;DHT22;14851;51.166;4.760;2024-01-27T00:00:25;2.10;99.90
27384;DHT22;14851;51.166;4.760;2024-01-27T00:02:51;2.10;99.90
27384;DHT22;14851;51.166;4.760;2024-01-27T00:05:17;2.20;99.90
27384;DHT22;14851;51.166;4.760;2024-01-27T00:07:43;2.20;99.90
27384;DHT22;14851;51.166;4.760;2024-01-27T00:10:11;2.10;99.90
27384;DHT22;14851;51.166;4.760;2024-01-27T00:12:37;2.10;99.90
27384;DHT22;14851;51.166;4.760;2024-01-27T00:15:03;2.10;99.90
27384;DHT22;14851;51.166;4.760;2024-01-27T00:17:29;2.10;99.90
27384;DHT22;14851;51.166;4.760;2024-01-27T00:19:57;2.10;99.90
27384;DHT22;14851;51.166;4.760;2024-01-27T00:22:23;2.10;99.90
27384;DHT22;14851;51.166;4.760;2024-01-27T00:24:49;2.00;99.90
27384;DHT22;14851;51.166;4.760;2024-01-27T00:27:17;2.10;99.90
27384;DHT22;14851;51.166;4.760;2024-01-27T00:29:43;2.10;99.90
27384;DHT22;14851;51.166;4.760;2024-01-27T00:32:13;2.10;99.90
27384;DHT22;14851;51.166;4.760;2024-01-27T00:34:41;2.00;99.90
27384;DHT22;14851;51.166;4.760;2024-01-27T00:37:08;2.00;99.90
27384;DHT22;14851;51.166;4.760;2024-01-27T00:39:34;2.00;99.90
27384;DHT22;14851;51.166;4.760;2024-01-27T00:42:02;2.00;99.90
27384;DHT22;14851;51.166;4.760;2024-01-27T00:44:28;1.90;99.90
27384;DHT22;14851;51.166;4.760;2024-01-27T00:46:53;1.90;99.90
27384;DHT22;14851;51.166;4.760;2024-01-27T00:49:19;1.90;99.90
27384;DHT22;14851;51.166;4.760;2024-01-27T00:51:45;2.00;99.90
27384;DHT22;14851;51.166;4.760;2024-01-27T00:54:11;1.90;99.90
27384;DHT22;14851;51.166;4.760;2024-01-27T00:56:37;2.10;99.90
27384;DHT22;14851;51.166;4.760;2024-01-27T00:59:06;2.10;99.90
27384;DHT22;14851;51.166;4.760;2024-01-27T01:01:37;2.10;99.90
27384;DHT22;14851;51.166;4.760;2024-01-27T01:04:03;2.00;99.90
27384;DHT22;14851;51.166;4.760;2024-01-27T01:06:29;2.00;99.90
27384;DHT22;14851;51.166;4.760;2024-01-27T01:08:54;2.00;99.90
27384;DHT22;14851;51.166;4.760;2024-01-27T01:11:23;2.10;99.90
27384;DHT22;14851;51.166;4.760;2024-01-27T01:13:49;2.10;99.90
27384;DHT22;14851;51.166;4.760;2024-01-27T01:16:15;2.20;99.90
27384;DHT22;14851;51.166;4.760;2024-01-27T01:18:41;2.30;99.90
27384;DHT22;14851;51.166;4.760;2024-01-27T01:21:07;2.30;99.90
27384;DHT22;14851;51.166;4.760;2024-01-27T01:23:35;2.20;99.90
27384;DHT22;14851;51.166;4.760;2024-01-27T01:26:01;2.20;99.90
27384;DHT22;14851;51.166;4.760;2024-01-27T01:28:28;2.20;99.90
27384;DHT22;14851;51.166;4.760;2024-01-27T01:30:56;2.10;99.90
27384;DHT22;14851;51.166;4.760;2024-01-27T01:33:23;2.00;99.90
27384;DHT22;14851;51.166;4.760;2024-01-27T01:35:49;2.00;99.90
27384;DHT22;14851;51.166;4.760;2024-01-27T01:38:14;2.00;99.90
27384;DHT22;14851;51.166;4.760;2024-01-27T01:40:40;1.90;99.90
27384;DHT22;14851;51.166;4.760;2024-01-27T01:43:11;1.90;99.90
27384;DHT22;14851;51.166;4.760;2024-01-27T01:45:41;1.90;99.90
27384;DHT22;14851;51.166;4.760;2024-01-27T01:48:09;1.90;99.90
27384;DHT22;14851;51.166;4.760;2024-01-27T01:50:35;1.90;99.90
27384;DHT22;14851;51.166;4.760;2024-01-27T01:53:04;1.80;99.90
27384;DHT22;14851;51.166;4.760;2024-01-27T01:55:32;1.80;99.90
27384;DHT22;14851;51.166;4.760;2024-01-27T01:57:58;1.70;99.90
27384;DHT22;14851;51.166;4.760;2024-01-27T02:00:24;1.70;99.90
27384;DHT22;14851;51.166;4.760;2024-01-27T02:02:50;1.70;99.90
27384;DHT22;14851;51.166;4.760;2024-01-27T02:05:16;1.70;99.90
27384;DHT22;14851;51.166;4.760;2024-01-27T02:07:45;1.70;99.90
27384;DHT22;14851;51.166;4.760;2024-01-27T02:10:15;1.70;99.90
27384;DHT22;14851;51.166;4.760;2024-01-27T02:12:43;1.60;99.90
27384;DHT22;14851;51.166;4.760;2024-01-27T02:15:13;1.60;99.90
27384;DHT22;14851;51.166;4.760;2024-01-27T02:17:44;1.60;99.90
27384;DHT22;14851;51.166;4.760;2024-01-27T02:20:10;1.50;99.90
27384;DHT22;14851;51.166;4.760;2024-01-27T02:22:38;1.60;99.90
27384;DHT22;14851;51.166;4.760;2024-01-27T02:25:04;1.50;99.90
27384;DHT22;14851;51.166;4.760;2024-01-27T02:27:30;1.50;99.90
27384;DHT22;14851;51.166;4.760;2024-01-27T02:29:56;1.50;99.90
27384;DHT22;14851;51.166;4.760;2024-01-27T02:32:24;1.50;99.90
27384;DHT22;14851;51.166;4.760;2024-01-27T02:34:50;1.40;99.90
27384;DHT22;14851;51.166;4.760;2024-01-27T02:37:15;1.40;99.90
27384;DHT22;14851;51.166;4.760;2024-01-27T02:39:41;1.40;99.90
27384;DHT22;14851;51.166;4.760;2024-01-27T02:42:07;1.30;99.90
27384;DHT22;14851;51.166;4.760;2024-01-27T02:44:33;1.30;99.90
27384;DHT22;14851;51.166;4.760;2024-01-27T02:46:58;1.30;99.90
27384;DHT22;14851;51.166;4.760;2024-01-27T02:49:26;1.30;99.90
27384;DHT22;14851;51.166;4.760;2024-01-27T02:51:53;1.30;99.90
27384;DHT22;14851;51.166;4.760;2024-01-27T02:54:21;1.30;99.90
27384;DHT22;14851;51.166;4.760;2024-01-27T02:56:47;1.30;99.90
27384;DHT22;14851;51.166;4.760;2024-01-27T02:59:15;1.30;99.90
27384;DHT22;14851;51.166;4.760;2024-01-27T03:01:44;1.30;99.90
27384;DHT22;14851;51.166;4.760;2024-01-27T03:04:09;1.20;99.90
27384;DHT22;14851;51.166;4.760;2024-01-27T03:06:35;1.20;99.90
27384;DHT22;14851;51.166;4.760;2024-01-27T03:09:03;1.30;99.90
27384;DHT22;14851;51.166;4.760;2024-01-27T03:11:29;1.20;99.90
27384;DHT22;14851;51.166;4.760;2024-01-27T03:14:00;1.20;99.90
27384;DHT22;14851;51.166;4.760;2024-01-27T03:16:26;1.20;99.90
27384;DHT22;14851;51.166;4.760;2024-01-27T03:18:51;1.20;99.90
27384;DHT22;14851;51.166;4.760;2024-01-27T03:21:17;1.20;99.90
27384;DHT22;14851;51.166;4.760;2024-01-27T03:23:43;1.20;99.90
27384;DHT22;14851;51.166;4.760;2024-01-27T03:26:09;1.10;99.90
27384;DHT22;14851;51.166;4.760;2024-01-27T03:28:37;1.10;99.90
27384;DHT22;14851;51.166;4.760;2024-01-27T03:31:03;1.10;99.90
27384;DHT22;14851;51.166;4.760;2024-01-27T03:33:28;1.10;99.90
27384;DHT22;14851;51.166;4.760;2024-01-27T03:35:56;1.10;99.90
27384;DHT22;14851;51.166;4.760;2024-01-27T03:38:22;1.10;99.90
27384;DHT22;14851;51.166;4.760;2024-01-27T03:40:48;1.20;99.90
27384;DHT22;14851;51.166;4.760;2024-01-27T03:43:16;1.10;99.90
27384;DHT22;14851;51.166;4.760;2024-01-27T03:45:45;1.00;99.90
27384;DHT22;14851;51.166;4.760;2024-01-27T03:48:10;1.00;99.90
27384;DHT22;14851;51.166;4.760;2024-01-27T03:50:38;1.00;99.90
27384;DHT22;14851;51.166;4.760;2024-01-27T03:53:06;1.00;99.90
27384;DHT22;14851;51.166;4.760;2024-01-27T03:55:32;1.00;99.90
27384;DHT22;14851;51.166;4.760;2024-01-27T03:57:59;0.90;99.90
27384;DHT22;14851;51.166;4.760;2024-01-27T04:00:25;1.00;99.90
27384;DHT22;14851;51.166;4.760;2024-01-27T04:02:58;1.00;99.90
27384;DHT22;14851;51.166;4.760;2024-01-27T04:05:24;1.00;99.90
27384;DHT22;14851;51.166;4.760;2024-01-27T04:07:49;1.00;99.90
27384;DHT22;14851;51.166;4.760;2024-01-27T04:10:17;0.90;99.90
27384;DHT22;14851;51.166;4.760;2024-01-27T04:12:45;0.90;99.90
27384;DHT22;14851;51.166;4.760;2024-01-27T04:15:14;0.90;99.90
27384;DHT22;14851;51.166;4.760;2024-01-27T04:17:41;0.90;99.90
27384;DHT22;14851;51.166;4.760;2024-01-27T04:20:07;0.90;99.90
27384;DHT22;14851;51.166;4.760;2024-01-27T04:22:34;0.80;99.90
27384;DHT22;14851;51.166;4.760;2024-01-27T04:25:00;0.90;99.90
27384;DHT22;14851;51.166;4.760;2024-01-27T04:27:30;0.80;99.90
27384;DHT22;14851;51.166;4.760;2024-01-27T04:30:00;0.80;99.90
27384;DHT22;14851;51.166;4.760;2024-01-27T04:32:29;0.80;99.90
27384;DHT22;14851;51.166;4.760;2024-01-27T04:34:57;0.70;99.90
27384;DHT22;14851;51.166;4.760;2024-01-27T04:37:23;0.80;99.90
27384;DHT22;14851;51.166;4.760;2024-01-27T04:39:51;0.70;99.90
27384;DHT22;14851;51.166;4.760;2024-01-27T04:42:16;0.70;99.90
27384;DHT22;14851;51.166;4.760;2024-01-27T04:44:42;0.70;99.90
27384;DHT22;14851;51.166;4.760;2024-01-27T04:47:08;0.80;99.90
27384;DHT22;14851;51.166;4.760;2024-01-27T04:49:34;0.80;99.90
27384;DHT22;14851;51.166;4.760;2024-01-27T04:52:02;0.70;99.90
27384;DHT22;14851;51.166;4.760;2024-01-27T04:54:28;0.70;99.90
27384;DHT22;14851;51.166;4.760;2024-01-27T04:56:53;0.70;99.90
27384;DHT22;14851;51.166;4.760;2024-01-27T04:59:24;0.70;99.90
27384;DHT22;14851;51.166;4.760;2024-01-27T05:01:50;0.70;99.90
27384;DHT22;14851;51.166;4.760;2024-01-27T05:04:16;0.60;99.90
27384;DHT22;14851;51.166;4.760;2024-01-27T05:06:47;0.60;99.90
27384;DHT22;14851;51.166;4.760;2024-01-27T05:09:19;0.60;99.90
27384;DHT22;14851;51.166;4.760;2024-01-27T05:11:45;0.60;99.90
27384;DHT22;14851;51.166;4.760;2024-01-27T05:14:11;0.60;99.90
27384;DHT22;14851;51.166;4.760;2024-01-27T05:16:37;0.60;99.90
27384;DHT22;14851;51.166;4.760;2024-01-27T05:19:05;0.60;99.90
27384;DHT22;14851;51.166;4.760;2024-01-27T05:21:33;0.60;99.90
27384;DHT22;14851;51.166;4.760;2024-01-27T05:23:59;0.50;99.90
27384;DHT22;14851;51.166;4.760;2024-01-27T05:26:25;0.50;99.90
27384;DHT22;14851;51.166;4.760;2024-01-27T05:28:51;0.50;99.90
27384;DHT22;14851;51.166;4.760;2024-01-27T05:31:19;0.50;99.90
27384;DHT22;14851;51.166;4.760;2024-01-27T05:33:47;0.50;99.90
27384;DHT22;14851;51.166;4.760;2024-01-27T05:36:13;0.50;99.90
27384;DHT22;14851;51.166;4.760;2024-01-27T05:38:44;0.50;99.90
27384;DHT22;14851;51.166;4.760;2024-01-27T05:41:10;0.50;99.90
27384;DHT22;14851;51.166;4.760;2024-01-27T05:43:36;0.40;99.90
27384;DHT22;14851;51.166;4.760;2024-01-27T05:46:02;0.40;99.90
27384;DHT22;14851;51.166;4.760;2024-01-27T05:48:27;0.40;99.90
27384;DHT22;14851;51.166;4.760;2024-01-27T05:51:00;0.30;99.90
27384;DHT22;14851;51.166;4.760;2024-01-27T05:53:27;0.30;99.90
27384;DHT22;14851;51.166;4.760;2024-01-27T05:55:53;0.30;99.90
27384;DHT22;14851;51.166;4.760;2024-01-27T05:58:22;0.30;99.90
27384;DHT22;14851;51.166;4.760;2024-01-27T06:00:48;0.30;99.90
27384;DHT22;14851;51.166;4.760;2024-01-27T06:03:14;0.30;99.90
27384;DHT22;14851;51.166;4.760;2024-01-27T06:05:41;0.30;99.90
27384;DHT22;14851;51.166;4.760;2024-01-27T06:08:10;0.30;99.90
27384;DHT22;14851;51.166;4.760;2024-01-27T06:10:36;0.30;99.90
27384;DHT22;14851;51.166;4.760;2024-01-27T06:13:05;0.30;99.90
27384;DHT22;14851;51.166;4.760;2024-01-27T06:15:31;0.30;99.90
27384;DHT22;14851;51.166;4.760;2024-01-27T06:18:01;0.20;99.90
27384;DHT22;14851;51.166;4.760;2024-01-27T06:20:28;0.20;99.90
27384;DHT22;14851;51.166;4.760;2024-01-27T06:22:53;0.20;99.90
27384;DHT22;14851;51.166;4.760;2024-01-27T06:25:20;0.20;99.90
27384;DHT22;14851;51.166;4.760;2024-01-27T06:27:46;0.20;99.90
27384;DHT22;14851;51.166;4.760;2024-01-27T06:30:13;0.20;99.90
27384;DHT22;14851;51.166;4.760;2024-01-27T06:32:39;0.30;99.90
27384;DHT22;14851;51.166;4.760;2024-01-27T06:35:05;0.30;99.90
27384;DHT22;14851;51.166;4.760;2024-01-27T06:37:31;0.30;99.90
27384;DHT22;14851;51.166;4.760;2024-01-27T06:39:57;0.30;99.90
27384;DHT22;14851;51.166;4.760;2024-01-27T06:42:23;0.30;99.90
27384;DHT22;14851;51.166;4.760;2024-01-27T06:44:49;0.30;99.90
27384;DHT22;14851;51.166;4.760;2024-01-27T06:47:18;0.30;99.90
27384;DHT22;14851;51.166;4.760;2024-01-27T06:49:47;0.20;99.90
27384;DHT22;14851;51.166;4.760;2024-01-27T06:52:12;0.20;99.90
27384;DHT22;14851;51.166;4.760;2024-01-27T06:54:38;0.20;99.90
27384;DHT22;14851;51.166;4.760;2024-01-27T06:57:18;0.20;99.90
27384;DHT22;14851;51.166;4.760;2024-01-27T06:59:49;0.20;99.90
27384;DHT22;14851;51.166;4.760;2024-01-27T07:02:26;0.10;99.90
27384;DHT22;14851;51.166;4.760;2024-01-27T07:04:53;0.10;99.90
27384;DHT22;14851;51.166;4.760;2024-01-27T07:07:28;0.10;99.90
27384;DHT22;14851;51.166;4.760;2024-01-27T07:09:55;0.10;99.90
27384;DHT22;14851;51.166;4.760;2024-01-27T07:12:21;0.10;99.90
27384;DHT22;14851;51.166;4.760;2024-01-27T07:14:47;0.10;99.90
27384;DHT22;14851;51.166;4.760;2024-01-27T07:17:13;0.10;99.90
27384;DHT22;14851;51.166;4.760;2024-01-27T07:19:39;0.10;99.90
27384;DHT22;14851;51.166;4.760;2024-01-27T07:22:05;0.10;99.90
27384;DHT22;14851;51.166;4.760;2024-01-27T07:24:31;0.10;99.90
27384;DHT22;14851;51.166;4.760;2024-01-27T07:26:57;0.10;99.90
27384;DHT22;14851;51.166;4.760;2024-01-27T07:29:24;0.10;99.90
27384;DHT22;14851;51.166;4.760;2024-01-27T07:31:50;0.00;99.90
27384;DHT22;14851;51.166;4.760;2024-01-27T07:34:16;0.00;99.90
27384;DHT22;14851;51.166;4.760;2024-01-27T07:36:42;0.00;99.90
27384;DHT22;14851;51.166;4.760;2024-01-27T07:39:08;0.00;99.90
27384;DHT22;14851;51.166;4.760;2024-01-27T07:41:34;0.00;99.90
27384;DHT22;14851;51.166;4.760;2024-01-27T07:44:10;0.00;99.90
27384;DHT22;14851;51.166;4.760;2024-01-27T07:46:37;0.00;99.90
27384;DHT22;14851;51.166;4.760;2024-01-27T07:49:04;0.10;99.90
27384;DHT22;14851;51.166;4.760;2024-01-27T07:51:30;0.00;99.90
27384;DHT22;14851;51.166;4.760;2024-01-27T07:53:56;0.00;99.90
27384;DHT22;14851;51.166;4.760;2024-01-27T07:56:22;0.00;99.90
27384;DHT22;14851;51.166;4.760;2024-01-27T07:58:51;0.00;99.90
27384;DHT22;14851;51.166;4.760;2024-01-27T08:01:19;0.00;99.90
27384;DHT22;14851;51.166;4.760;2024-01-27T08:03:45;0.00;99.90
27384;DHT22;14851;51.166;4.760;2024-01-27T08:06:27;0.00;99.90
27384;DHT22;14851;51.166;4.760;2024-01-27T08:08:56;0.10;99.90
27384;DHT22;14851;51.166;4.760;2024-01-27T08:11:22;0.10;99.90
27384;DHT22;14851;51.166;4.760;2024-01-27T08:13:50;0.20;99.90
27384;DHT22;14851;51.166;4.760;2024-01-27T08:16:21;0.30;99.90
27384;DHT22;14851;51.166;4.760;2024-01-27T08:18:50;0.50;99.90
27384;DHT22;14851;51.166;4.760;2024-01-27T08:21:19;0.50;99.90
27384;DHT22;14851;51.166;4.760;2024-01-27T08:23:45;0.50;99.90
27384;DHT22;14851;51.166;4.760;2024-01-27T08:26:11;0.50;99.90
27384;DHT22;14851;51.166;4.760;2024-01-27T08:28:36;0.50;99.90
27384;DHT22;14851;51.166;4.760;2024-01-27T08:31:03;0.50;99.90
27384;DHT22;14851;51.166;4.760;2024-01-27T08:33:28;0.40;99.90
27384;DHT22;14851;51.166;4.760;2024-01-27T08:35:54;0.30;99.90
27384;DHT22;14851;51.166;4.760;2024-01-27T08:38:20;0.30;99.90
27384;DHT22;14851;51.166;4.760;2024-01-27T08:40:46;0.30;99.90
27384;DHT22;14851;51.166;4.760;2024-01-27T08:43:11;0.40;99.90
27384;DHT22;14851;51.166;4.760;2024-01-27T08:45:38;0.60;99.90
27384;DHT22;14851;51.166;4.760;2024-01-27T08:48:11;0.70;99.90
27384;DHT22;14851;51.166;4.760;2024-01-27T08:50:38;0.80;99.90
27384;DHT22;14851;51.166;4.760;2024-01-27T08:53:05;0.90;99.90
27384;DHT22;14851;51.166;4.760;2024-01-27T08:55:31;1.00;99.90
27384;DHT22;14851;51.166;4.760;2024-01-27T08:57:57;1.00;99.90
27384;DHT22;14851;51.166;4.760;2024-01-27T09:00:23;1.00;99.90
27384;DHT22;14851;51.166;4.760;2024-01-27T09:02:52;1.00;99.90
27384;DHT22;14851;51.166;4.760;2024-01-27T09:05:18;1.00;99.90
27384;DHT22;14851;51.166;4.760;2024-01-27T09:07:44;1.10;99.90
27384;DHT22;14851;51.166;4.760;2024-01-27T09:10:09;1.10;99.90
27384;DHT22;14851;51.166;4.760;2024-01-27T09:12:39;1.10;99.90
27384;DHT22;14851;51.166;4.760;2024-01-27T09:15:06;1.10;99.90
27384;DHT22;14851;51.166;4.760;2024-01-27T09:17:32;1.10;99.90
27384;DHT22;14851;51.166;4.760;2024-01-27T09:19:59;1.10;99.90
27384;DHT22;14851;51.166;4.760;2024-01-27T09:22:25;1.10;99.90
27384;DHT22;14851;51.166;4.760;2024-01-27T09:24:51;1.20;99.90
27384;DHT22;14851;51.166;4.760;2024-01-27T09:27:17;1.20;99.90
27384;DHT22;14851;51.166;4.760;2024-01-27T09:29:43;1.30;99.90
27384;DHT22;14851;51.166;4.760;2024-01-27T09:32:09;1.20;99.90
27384;DHT22;14851;51.166;4.760;2024-01-27T09:34:35;1.20;99.90
27384;DHT22;14851;51.166;4.760;2024-01-27T09:37:01;1.30;99.90
27384;DHT22;14851;51.166;4.760;2024-01-27T09:39:27;1.40;99.90
27384;DHT22;14851;51.166;4.760;2024-01-27T09:41:55;1.50;99.90
27384;DHT22;14851;51.166;4.760;2024-01-27T09:44:28;1.50;99.90
27384;DHT22;14851;51.166;4.760;2024-01-27T09:46:54;1.60;99.90
27384;DHT22;14851;51.166;4.760;2024-01-27T09:49:20;1.70;99.90
27384;DHT22;14851;51.166;4.760;2024-01-27T09:51:46;1.70;99.90
27384;DHT22;14851;51.166;4.760;2024-01-27T09:54:12;1.80;99.90
27384;DHT22;14851;51.166;4.760;2024-01-27T09:56:38;1.90;99.90
27384;DHT22;14851;51.166;4.760;2024-01-27T09:59:05;1.90;99.90
27384;DHT22;14851;51.166;4.760;2024-01-27T10:01:32;2.00;99.90
27384;DHT22;14851;51.166;4.760;2024-01-27T10:03:59;2.10;99.90
27384;DHT22;14851;51.166;4.760;2024-01-27T10:06:25;2.10;99.90
27384;DHT22;14851;51.166;4.760;2024-01-27T10:08:57;2.50;99.90
27384;DHT22;14851;51.166;4.760;2024-01-27T10:11:27;2.60;99.90
27384;DHT22;14851;51.166;4.760;2024-01-27T10:13:55;2.60;99.90
27384;DHT22;14851;51.166;4.760;2024-01-27T10:16:24;2.70;99.90
27384;DHT22;14851;51.166;4.760;2024-01-27T10:19:02;2.90;99.90
27384;DHT22;14851;51.166;4.760;2024-01-27T10:21:28;3.10;99.90
27384;DHT22;14851;51.166;4.760;2024-01-27T10:23:56;3.10;99.90
27384;DHT22;14851;51.166;4.760;2024-01-27T10:26:24;3.20;99.90
27384;DHT22;14851;51.166;4.760;2024-01-27T10:28:54;3.30;99.90
27384;DHT22;14851;51.166;4.760;2024-01-27T10:31:29;3.30;99.90
27384;DHT22;14851;51.166;4.760;2024-01-27T10:33:58;3.40;99.90
27384;DHT22;14851;51.166;4.760;2024-01-27T10:36:25;3.50;99.90
27384;DHT22;14851;51.166;4.760;2024-01-27T10:38:54;3.50;99.90
27384;DHT22;14851;51.166;4.760;2024-01-27T10:41:24;3.60;99.90
27384;DHT22;14851;51.166;4.760;2024-01-27T10:43:54;3.50;99.90
27384;DHT22;14851;51.166;4.760;2024-01-27T10:46:21;3.40;99.90
27384;DHT22;14851;51.166;4.760;2024-01-27T10:48:51;3.60;99.90
27384;DHT22;14851;51.166;4.760;2024-01-27T10:51:30;3.70;99.90
27384;DHT22;14851;51.166;4.760;2024-01-27T10:54:07;3.80;99.90
27384;DHT22;14851;51.166;4.760;2024-01-27T10:56:37;3.90;99.90
27384;DHT22;14851;51.166;4.760;2024-01-27T10:59:09;3.90;99.90
27384;DHT22;14851;51.166;4.760;2024-01-27T11:01:36;3.90;99.90
27384;DHT22;14851;51.166;4.760;2024-01-27T11:04:03;4.00;99.90
27384;DHT22;14851;51.166;4.760;2024-01-27T11:06:34;4.10;99.90
27384;DHT22;14851;51.166;4.760;2024-01-27T11:09:02;4.00;99.90
27384;DHT22;14851;51.166;4.760;2024-01-27T11:11:31;4.10;99.90
27384;DHT22;14851;51.166;4.760;2024-01-27T11:13:59;4.20;99.90
27384;DHT22;14851;51.166;4.760;2024-01-27T11:16:25;4.30;99.90
27384;DHT22;14851;51.166;4.760;2024-01-27T11:18:54;4.30;99.90
27384;DHT22;14851;51.166;4.760;2024-01-27T11:21:20;4.40;99.90
27384;DHT22;14851;51.166;4.760;2024-01-27T11:23:46;4.50;99.90
27384;DHT22;14851;51.166;4.760;2024-01-27T11:26:19;4.40;99.90
27384;DHT22;14851;51.166;4.760;2024-01-27T11:28:45;4.50;99.90
27384;DHT22;14851;51.166;4.760;2024-01-27T11:31:11;4.70;99.90
27384;DHT22;14851;51.166;4.760;2024-01-27T11:33:45;4.80;99.90
27384;DHT22;14851;51.166;4.760;2024-01-27T11:36:20;4.80;99.90
27384;DHT22;14851;51.166;4.760;2024-01-27T11:38:47;4.90;99.90
27384;DHT22;14851;51.166;4.760;2024-01-27T11:41:23;4.90;99.90
27384;DHT22;14851;51.166;4.760;2024-01-27T11:43:54;5.00;99.90
27384;DHT22;14851;51.166;4.760;2024-01-27T11:46:20;4.90;99.90
27384;DHT22;14851;51.166;4.760;2024-01-27T11:48:46;5.00;99.90
27384;DHT22;14851;51.166;4.760;2024-01-27T11:51:15;5.00;99.90
27384;DHT22;14851;51.166;4.760;2024-01-27T11:53:41;5.10;99.90
27384;DHT22;14851;51.166;4.760;2024-01-27T11:56:07;5.20;99.90
27384;DHT22;14851;51.166;4.760;2024-01-27T11:58:33;5.10;99.90
27384;DHT22;14851;51.166;4.760;2024-01-27T12:00:59;5.00;99.90
27384;DHT22;14851;51.166;4.760;2024-01-27T12:03:27;5.20;99.90
27384;DHT22;14851;51.166;4.760;2024-01-27T12:05:55;5.30;99.90
27384;DHT22;14851;51.166;4.760;2024-01-27T12:08:22;5.20;99.90
27384;DHT22;14851;51.166;4.760;2024-01-27T12:10:48;5.20;99.90
27384;DHT22;14851;51.166;4.760;2024-01-27T12:13:15;5.30;99.90
27384;DHT22;14851;51.166;4.760;2024-01-27T12:15:41;5.30;99.90
27384;DHT22;14851;51.166;4.760;2024-01-27T12:18:08;5.50;99.90
27384;DHT22;14851;51.166;4.760;2024-01-27T12:20:35;5.40;99.90
27384;DHT22;14851;51.166;4.760;2024-01-27T12:25:30;5.30;99.90
27384;DHT22;14851;51.166;4.760;2024-01-27T12:27:56;5.20;99.90
27384;DHT22;14851;51.166;4.760;2024-01-27T12:30:26;5.20;99.90
27384;DHT22;14851;51.166;4.760;2024-01-27T12:32:53;5.20;99.90
27384;DHT22;14851;51.166;4.760;2024-01-27T12:35:19;5.50;99.90
27384;DHT22;14851;51.166;4.760;2024-01-27T12:37:49;5.60;99.90
27384;DHT22;14851;51.166;4.760;2024-01-27T12:40:24;5.70;99.90
27384;DHT22;14851;51.166;4.760;2024-01-27T12:42:50;5.70;99.90
27384;DHT22;14851;51.166;4.760;2024-01-27T12:45:18;5.70;99.90
27384;DHT22;14851;51.166;4.760;2024-01-27T12:47:44;5.70;99.90
27384;DHT22;14851;51.166;4.760;2024-01-27T12:50:10;5.60;99.90
27384;DHT22;14851;51.166;4.760;2024-01-27T12:52:36;5.60;99.90
27384;DHT22;14851;51.166;4.760;2024-01-27T12:55:08;5.60;99.90
27384;DHT22;14851;51.166;4.760;2024-01-27T12:57:36;5.60;99.90
27384;DHT22;14851;51.166;4.760;2024-01-27T13:00:02;5.70;99.90
27384;DHT22;14851;51.166;4.760;2024-01-27T13:02:36;5.70;99.90
27384;DHT22;14851;51.166;4.760;2024-01-27T13:05:03;5.70;99.90
27384;DHT22;14851;51.166;4.760;2024-01-27T13:07:29;5.80;99.90
27384;DHT22;14851;51.166;4.760;2024-01-27T13:09:58;5.90;99.90
27384;DHT22;14851;51.166;4.760;2024-01-27T13:12:24;6.00;99.90
27384;DHT22;14851;51.166;4.760;2024-01-27T13:14:49;6.00;99.90
27384;DHT22;14851;51.166;4.760;2024-01-27T13:17:17;6.00;99.90
27384;DHT22;14851;51.166;4.760;2024-01-27T13:19:45;6.00;99.90
27384;DHT22;14851;51.166;4.760;2024-01-27T13:22:12;6.10;99.90
27384;DHT22;14851;51.166;4.760;2024-01-27T13:24:40;6.00;99.90
27384;DHT22;14851;51.166;4.760;2024-01-27T13:27:11;5.90;99.90
27384;DHT22;14851;51.166;4.760;2024-01-27T13:29:37;5.90;99.90
27384;DHT22;14851;51.166;4.760;2024-01-27T13:32:03;5.90;99.90
27384;DHT22;14851;51.166;4.760;2024-01-27T13:34:29;5.90;99.90
27384;DHT22;14851;51.166;4.760;2024-01-27T13:36:56;6.00;99.90
27384;DHT22;14851;51.166;4.760;2024-01-27T13:39:22;6.00;99.90
27384;DHT22;14851;51.166;4.760;2024-01-27T13:41:48;6.00;99.90
27384;DHT22;14851;51.166;4.760;2024-01-27T13:44:16;6.00;99.90
27384;DHT22;14851;51.166;4.760;2024-01-27T13:46:42;6.10;99.90
27384;DHT22;14851;51.166;4.760;2024-01-27T13:49:08;6.10;99.90
27384;DHT22;14851;51.166;4.760;2024-01-27T13:51:36;6.00;99.90
27384;DHT22;14851;51.166;4.760;2024-01-27T13:54:03;6.00;99.90
27384;DHT22;14851;51.166;4.760;2024-01-27T13:56:29;6.00;99.90
27384;DHT22;14851;51.166;4.760;2024-01-27T13:58:58;6.10;99.90
27384;DHT22;14851;51.166;4.760;2024-01-27T14:01:23;6.10;99.90
27384;DHT22;14851;51.166;4.760;2024-01-27T14:03:49;6.10;99.90
27384;DHT22;14851;51.166;4.760;2024-01-27T14:06:15;6.10;99.90
27384;DHT22;14851;51.166;4.760;2024-01-27T14:08:41;6.10;99.90
27384;DHT22;14851;51.166;4.760;2024-01-27T14:11:07;6.10;99.90
27384;DHT22;14851;51.166;4.760;2024-01-27T14:13:35;6.10;99.90
27384;DHT22;14851;51.166;4.760;2024-01-27T14:16:01;6.20;99.90
27384;DHT22;14851;51.166;4.760;2024-01-27T14:18:27;6.20;99.90
27384;DHT22;14851;51.166;4.760;2024-01-27T14:20:53;6.20;99.90
27384;DHT22;14851;51.166;4.760;2024-01-27T14:23:19;6.30;99.90
27384;DHT22;14851;51.166;4.760;2024-01-27T14:25:49;6.30;99.90
27384;DHT22;14851;51.166;4.760;2024-01-27T14:28:16;6.30;99.90
27384;DHT22;14851;51.166;4.760;2024-01-27T14:30:44;6.30;99.90
27384;DHT22;14851;51.166;4.760;2024-01-27T14:33:12;6.30;99.90
27384;DHT22;14851;51.166;4.760;2024-01-27T14:35:38;6.30;99.90
27384;DHT22;14851;51.166;4.760;2024-01-27T14:38:07;6.30;99.90
27384;DHT22;14851;51.166;4.760;2024-01-27T14:40:34;6.30;99.90
27384;DHT22;14851;51.166;4.760;2024-01-27T14:43:05;6.30;99.90
27384;DHT22;14851;51.166;4.760;2024-01-27T14:45:37;6.40;99.90
27384;DHT22;14851;51.166;4.760;2024-01-27T14:48:03;6.40;99.90
27384;DHT22;14851;51.166;4.760;2024-01-27T14:50:32;6.40;99.90
27384;DHT22;14851;51.166;4.760;2024-01-27T14:53:00;6.40;99.90
27384;DHT22;14851;51.166;4.760;2024-01-27T14:55:31;6.40;99.90
27384;DHT22;14851;51.166;4.760;2024-01-27T14:57:58;6.40;99.90
27384;DHT22;14851;51.166;4.760;2024-01-27T15:00:27;6.40;99.90
27384;DHT22;14851;51.166;4.760;2024-01-27T15:02:53;6.40;99.90
27384;DHT22;14851;51.166;4.760;2024-01-27T15:05:19;6.40;99.90
27384;DHT22;14851;51.166;4.760;2024-01-27T15:07:46;6.40;99.90
27384;DHT22;14851;51.166;4.760;2024-01-27T15:10:11;6.40;99.90
27384;DHT22;14851;51.166;4.760;2024-01-27T15:12:39;6.40;99.90
27384;DHT22;14851;51.166;4.760;2024-01-27T15:15:05;6.40;99.90
27384;DHT22;14851;51.166;4.760;2024-01-27T15:17:33;6.40;99.90
27384;DHT22;14851;51.166;4.760;2024-01-27T15:20:02;6.40;99.90
27384;DHT22;14851;51.166;4.760;2024-01-27T15:22:28;6.30;99.90
27384;DHT22;14851;51.166;4.760;2024-01-27T15:24:55;6.30;99.90
27384;DHT22;14851;51.166;4.760;2024-01-27T15:27:23;6.30;99.90
27384;DHT22;14851;51.166;4.760;2024-01-27T15:29:49;6.30;99.90
27384;DHT22;14851;51.166;4.760;2024-01-27T15:32:14;6.20;99.90
27384;DHT22;14851;51.166;4.760;2024-01-27T15:34:46;6.30;99.90
27384;DHT22;14851;51.166;4.760;2024-01-27T15:37:12;6.30;99.90
27384;DHT22;14851;51.166;4.760;2024-01-27T15:39:40;6.30;99.90
27384;DHT22;14851;51.166;4.760;2024-01-27T15:42:08;6.30;99.90
27384;DHT22;14851;51.166;4.760;2024-01-27T15:44:34;6.30;99.90
27384;DHT22;14851;51.166;4.760;2024-01-27T15:46:59;6.20;99.90